sensor_id;sensor_type;location;lat;lon;timestamp;P1;durP1;ratioP1;P2;durP2;ratioP2
20830;SDS011;10576;53.556;9.868;2022-12-18T00:01:35;19.53;;;11.83;;
20830;SDS011;10576;53.556;9.868;2022-12-18T00:04:02;17.85;;;11.98;;
20830;SDS011;10576;53.556;9.868;2022-12-18T00:06:30;17.88;;;11.85;;
20830;SDS011;10576;53.556;9.868;2022-12-18T00:08:57;18.95;;;11.98;;
20830;SDS011;10576;53.556;9.868;2022-12-18T00:11:25;15.00;;;10.57;;
20830;SDS011;10576;53.556;9.868;2022-12-18T00:13:53;18.38;;;11.45;;
20830;SDS011;10576;53.556;9.868;2022-12-18T00:16:20;17.17;;;11.57;;
20830;SDS011;10576;53.556;9.868;2022-12-18T00:18:48;16.85;;;11.63;;
20830;SDS011;10576;53.556;9.868;2022-12-18T00:21:14;17.17;;;11.27;;
20830;SDS011;10576;53.556;9.868;2022-12-18T00:23:41;15.80;;;10.97;;
20830;SDS011;10576;53.556;9.868;2022-12-18T00:26:11;16.23;;;11.47;;
20830;SDS011;10576;53.556;9.868;2022-12-18T00:28:39;18.45;;;11.50;;
20830;SDS011;10576;53.556;9.868;2022-12-18T00:31:07;19.48;;;11.32;;
20830;SDS011;10576;53.556;9.868;2022-12-18T00:33:37;18.07;;;11.67;;
20830;SDS011;10576;53.556;9.868;2022-12-18T00:38:30;16.67;;;11.25;;
20830;SDS011;10576;53.556;9.868;2022-12-18T00:40:55;17.50;;;10.70;;
20830;SDS011;10576;53.556;9.868;2022-12-18T00:43:21;20.27;;;10.40;;
20830;SDS011;10576;53.556;9.868;2022-12-18T00:45:46;17.00;;;11.10;;
20830;SDS011;10576;53.556;9.868;2022-12-18T00:48:12;16.77;;;10.83;;
20830;SDS011;10576;53.556;9.868;2022-12-18T00:50:37;14.90;;;10.30;;
20830;SDS011;10576;53.556;9.868;2022-12-18T00:53:03;16.38;;;10.68;;
20830;SDS011;10576;53.556;9.868;2022-12-18T00:55:29;16.45;;;11.00;;
20830;SDS011;10576;53.556;9.868;2022-12-18T00:57:54;17.53;;;11.63;;
20830;SDS011;10576;53.556;9.868;2022-12-18T01:00:20;19.20;;;11.25;;
20830;SDS011;10576;53.556;9.868;2022-12-18T01:02:46;16.80;;;10.77;;
20830;SDS011;10576;53.556;9.868;2022-12-18T01:05:12;14.75;;;10.25;;
20830;SDS011;10576;53.556;9.868;2022-12-18T01:07:38;17.40;;;10.30;;
20830;SDS011;10576;53.556;9.868;2022-12-18T01:10:04;16.10;;;10.02;;
20830;SDS011;10576;53.556;9.868;2022-12-18T01:12:31;12.30;;;9.50;;
20830;SDS011;10576;53.556;9.868;2022-12-18T01:14:56;16.17;;;10.57;;
20830;SDS011;10576;53.556;9.868;2022-12-18T01:17:22;13.45;;;9.63;;
20830;SDS011;10576;53.556;9.868;2022-12-18T01:19:48;16.77;;;10.00;;
20830;SDS011;10576;53.556;9.868;2022-12-18T01:22:13;15.45;;;10.15;;
20830;SDS011;10576;53.556;9.868;2022-12-18T01:24:39;16.00;;;10.95;;
20830;SDS011;10576;53.556;9.868;2022-12-18T01:27:05;16.00;;;10.10;;
20830;SDS011;10576;53.556;9.868;2022-12-18T01:29:30;13.65;;;9.63;;
20830;SDS011;10576;53.556;9.868;2022-12-18T01:31:56;17.75;;;10.13;;
20830;SDS011;10576;53.556;9.868;2022-12-18T01:34:22;14.17;;;10.20;;
20830;SDS011;10576;53.556;9.868;2022-12-18T01:36:48;15.27;;;9.85;;
20830;SDS011;10576;53.556;9.868;2022-12-18T01:39:14;16.33;;;10.65;;
20830;SDS011;10576;53.556;9.868;2022-12-18T01:41:40;15.02;;;10.13;;
20830;SDS011;10576;53.556;9.868;2022-12-18T01:49:54;15.05;;;10.02;;
20830;SDS011;10576;53.556;9.868;2022-12-18T01:52:20;16.63;;;9.88;;
20830;SDS011;10576;53.556;9.868;2022-12-18T01:54:47;15.15;;;9.52;;
20830;SDS011;10576;53.556;9.868;2022-12-18T01:57:15;17.00;;;9.93;;
20830;SDS011;10576;53.556;9.868;2022-12-18T01:59:41;14.65;;;9.43;;
20830;SDS011;10576;53.556;9.868;2022-12-18T02:02:10;14.65;;;9.52;;
20830;SDS011;10576;53.556;9.868;2022-12-18T02:04:36;14.48;;;9.65;;
20830;SDS011;10576;53.556;9.868;2022-12-18T02:09:31;16.95;;;11.52;;
20830;SDS011;10576;53.556;9.868;2022-12-18T02:12:13;18.33;;;10.02;;
20830;SDS011;10576;53.556;9.868;2022-12-18T02:14:45;15.73;;;9.68;;
20830;SDS011;10576;53.556;9.868;2022-12-18T02:18:27;15.07;;;9.57;;
20830;SDS011;10576;53.556;9.868;2022-12-18T02:23:14;15.57;;;9.52;;
20830;SDS011;10576;53.556;9.868;2022-12-18T02:29:12;13.93;;;9.38;;
20830;SDS011;10576;53.556;9.868;2022-12-18T02:31:45;17.30;;;9.38;;
20830;SDS011;10576;53.556;9.868;2022-12-18T02:34:18;13.47;;;9.30;;
20830;SDS011;10576;53.556;9.868;2022-12-18T02:36:45;14.80;;;9.45;;
20830;SDS011;10576;53.556;9.868;2022-12-18T02:39:12;14.35;;;9.30;;
20830;SDS011;10576;53.556;9.868;2022-12-18T02:41:40;16.50;;;9.50;;
20830;SDS011;10576;53.556;9.868;2022-12-18T02:44:07;13.93;;;9.20;;
20830;SDS011;10576;53.556;9.868;2022-12-18T02:49:12;16.23;;;9.77;;
20830;SDS011;10576;53.556;9.868;2022-12-18T02:52:07;18.33;;;9.80;;
20830;SDS011;10576;53.556;9.868;2022-12-18T02:57:17;14.02;;;9.55;;
20830;SDS011;10576;53.556;9.868;2022-12-18T02:59:54;15.23;;;9.60;;
20830;SDS011;10576;53.556;9.868;2022-12-18T03:10:36;13.88;;;9.05;;
20830;SDS011;10576;53.556;9.868;2022-12-18T03:13:08;17.05;;;9.98;;
20830;SDS011;10576;53.556;9.868;2022-12-18T03:15:38;17.60;;;8.90;;
20830;SDS011;10576;53.556;9.868;2022-12-18T03:18:10;12.47;;;9.20;;
20830;SDS011;10576;53.556;9.868;2022-12-18T03:20:49;12.93;;;9.25;;
20830;SDS011;10576;53.556;9.868;2022-12-18T03:23:17;15.20;;;9.57;;
20830;SDS011;10576;53.556;9.868;2022-12-18T03:25:47;14.57;;;9.35;;
20830;SDS011;10576;53.556;9.868;2022-12-18T03:28:20;15.53;;;9.60;;
20830;SDS011;10576;53.556;9.868;2022-12-18T03:30:47;13.82;;;9.18;;
20830;SDS011;10576;53.556;9.868;2022-12-18T03:33:16;14.82;;;9.70;;
20830;SDS011;10576;53.556;9.868;2022-12-18T03:35:48;14.73;;;9.35;;
20830;SDS011;10576;53.556;9.868;2022-12-18T03:38:16;14.45;;;9.60;;
20830;SDS011;10576;53.556;9.868;2022-12-18T03:40:50;15.75;;;10.10;;
20830;SDS011;10576;53.556;9.868;2022-12-18T03:43:26;14.75;;;9.30;;
20830;SDS011;10576;53.556;9.868;2022-12-18T03:45:54;12.60;;;9.20;;
20830;SDS011;10576;53.556;9.868;2022-12-18T03:48:50;13.98;;;8.90;;
20830;SDS011;10576;53.556;9.868;2022-12-18T03:51:24;14.63;;;9.57;;
20830;SDS011;10576;53.556;9.868;2022-12-18T03:53:58;12.77;;;9.45;;
20830;SDS011;10576;53.556;9.868;2022-12-18T03:56:28;12.73;;;9.13;;
20830;SDS011;10576;53.556;9.868;2022-12-18T03:58:58;14.45;;;9.50;;
20830;SDS011;10576;53.556;9.868;2022-12-18T04:01:33;16.20;;;9.60;;
20830;SDS011;10576;53.556;9.868;2022-12-18T04:04:04;13.18;;;9.05;;
20830;SDS011;10576;53.556;9.868;2022-12-18T04:06:35;14.15;;;9.32;;
20830;SDS011;10576;53.556;9.868;2022-12-18T04:09:01;14.85;;;9.15;;
20830;SDS011;10576;53.556;9.868;2022-12-18T04:11:27;13.63;;;8.93;;
20830;SDS011;10576;53.556;9.868;2022-12-18T04:13:55;14.80;;;8.52;;
20830;SDS011;10576;53.556;9.868;2022-12-18T04:16:23;13.05;;;9.30;;
20830;SDS011;10576;53.556;9.868;2022-12-18T04:18:52;14.90;;;9.65;;
20830;SDS011;10576;53.556;9.868;2022-12-18T04:21:18;14.32;;;9.20;;
20830;SDS011;10576;53.556;9.868;2022-12-18T04:23:44;13.98;;;9.18;;
20830;SDS011;10576;53.556;9.868;2022-12-18T04:26:10;14.93;;;9.33;;
20830;SDS011;10576;53.556;9.868;2022-12-18T04:28:37;15.85;;;10.02;;
20830;SDS011;10576;53.556;9.868;2022-12-18T04:31:02;15.30;;;9.70;;
20830;SDS011;10576;53.556;9.868;2022-12-18T04:33:28;16.02;;;9.80;;
20830;SDS011;10576;53.556;9.868;2022-12-18T04:35:54;14.90;;;9.38;;
20830;SDS011;10576;53.556;9.868;2022-12-18T04:38:19;14.07;;;9.33;;
20830;SDS011;10576;53.556;9.868;2022-12-18T04:40:45;14.90;;;9.05;;
20830;SDS011;10576;53.556;9.868;2022-12-18T04:43:11;14.25;;;9.00;;
20830;SDS011;10576;53.556;9.868;2022-12-18T04:45:36;15.93;;;9.47;;
20830;SDS011;10576;53.556;9.868;2022-12-18T04:48:02;15.45;;;8.65;;
20830;SDS011;10576;53.556;9.868;2022-12-18T04:50:28;15.68;;;8.90;;
20830;SDS011;10576;53.556;9.868;2022-12-18T04:52:55;14.82;;;9.32;;
20830;SDS011;10576;53.556;9.868;2022-12-18T04:55:21;12.52;;;8.43;;
20830;SDS011;10576;53.556;9.868;2022-12-18T04:57:49;13.57;;;8.88;;
20830;SDS011;10576;53.556;9.868;2022-12-18T05:00:15;14.60;;;8.97;;
20830;SDS011;10576;53.556;9.868;2022-12-18T05:02:41;15.27;;;9.32;;
20830;SDS011;10576;53.556;9.868;2022-12-18T05:05:07;14.40;;;9.00;;
20830;SDS011;10576;53.556;9.868;2022-12-18T05:07:33;14.13;;;9.25;;
20830;SDS011;10576;53.556;9.868;2022-12-18T05:09:59;11.90;;;8.63;;
20830;SDS011;10576;53.556;9.868;2022-12-18T05:12:25;15.75;;;8.90;;
20830;SDS011;10576;53.556;9.868;2022-12-18T05:14:51;13.70;;;8.65;;
20830;SDS011;10576;53.556;9.868;2022-12-18T05:17:16;14.65;;;8.88;;
20830;SDS011;10576;53.556;9.868;2022-12-18T05:19:42;13.77;;;8.20;;
20830;SDS011;10576;53.556;9.868;2022-12-18T05:22:08;14.07;;;8.82;;
20830;SDS011;10576;53.556;9.868;2022-12-18T05:24:34;11.70;;;8.45;;
20830;SDS011;10576;53.556;9.868;2022-12-18T05:27:00;13.02;;;8.48;;
20830;SDS011;10576;53.556;9.868;2022-12-18T05:29:26;11.80;;;8.93;;
20830;SDS011;10576;53.556;9.868;2022-12-18T05:31:51;15.23;;;9.45;;
20830;SDS011;10576;53.556;9.868;2022-12-18T05:34:17;14.07;;;8.70;;
20830;SDS011;10576;53.556;9.868;2022-12-18T05:36:43;12.67;;;8.33;;
20830;SDS011;10576;53.556;9.868;2022-12-18T05:39:09;13.82;;;8.65;;
20830;SDS011;10576;53.556;9.868;2022-12-18T05:41:35;13.30;;;8.85;;
20830;SDS011;10576;53.556;9.868;2022-12-18T05:44:00;15.95;;;8.82;;
20830;SDS011;10576;53.556;9.868;2022-12-18T05:46:27;16.63;;;9.13;;
20830;SDS011;10576;53.556;9.868;2022-12-18T05:48:53;13.07;;;8.95;;
20830;SDS011;10576;53.556;9.868;2022-12-18T05:51:19;13.37;;;9.33;;
20830;SDS011;10576;53.556;9.868;2022-12-18T05:53:46;14.77;;;8.73;;
20830;SDS011;10576;53.556;9.868;2022-12-18T05:56:17;14.90;;;9.43;;
20830;SDS011;10576;53.556;9.868;2022-12-18T05:58:44;14.38;;;8.75;;
20830;SDS011;10576;53.556;9.868;2022-12-18T06:01:14;13.88;;;9.60;;
20830;SDS011;10576;53.556;9.868;2022-12-18T06:03:44;12.20;;;8.55;;
20830;SDS011;10576;53.556;9.868;2022-12-18T06:06:17;12.90;;;8.80;;
20830;SDS011;10576;53.556;9.868;2022-12-18T06:08:43;12.95;;;8.75;;
20830;SDS011;10576;53.556;9.868;2022-12-18T06:11:09;14.18;;;9.02;;
20830;SDS011;10576;53.556;9.868;2022-12-18T06:13:35;14.35;;;8.15;;
20830;SDS011;10576;53.556;9.868;2022-12-18T06:16:02;16.08;;;8.73;;
20830;SDS011;10576;53.556;9.868;2022-12-18T06:18:31;13.82;;;9.20;;
20830;SDS011;10576;53.556;9.868;2022-12-18T06:20:58;13.75;;;8.70;;
20830;SDS011;10576;53.556;9.868;2022-12-18T06:23:24;14.65;;;8.82;;
20830;SDS011;10576;53.556;9.868;2022-12-18T06:25:50;13.60;;;8.57;;
20830;SDS011;10576;53.556;9.868;2022-12-18T06:28:16;15.52;;;9.30;;
20830;SDS011;10576;53.556;9.868;2022-12-18T06:30:45;16.50;;;9.50;;
20830;SDS011;10576;53.556;9.868;2022-12-18T06:33:11;17.10;;;9.73;;
20830;SDS011;10576;53.556;9.868;2022-12-18T06:35:37;16.02;;;9.57;;
20830;SDS011;10576;53.556;9.868;2022-12-18T06:38:03;20.13;;;9.90;;
20830;SDS011;10576;53.556;9.868;2022-12-18T06:40:29;16.98;;;9.43;;
20830;SDS011;10576;53.556;9.868;2022-12-18T06:42:55;19.20;;;10.23;;
20830;SDS011;10576;53.556;9.868;2022-12-18T06:45:20;17.65;;;9.43;;
20830;SDS011;10576;53.556;9.868;2022-12-18T06:47:46;15.20;;;9.23;;
20830;SDS011;10576;53.556;9.868;2022-12-18T06:50:12;17.20;;;9.13;;
20830;SDS011;10576;53.556;9.868;2022-12-18T06:52:38;19.90;;;9.68;;
20830;SDS011;10576;53.556;9.868;2022-12-18T06:55:05;14.02;;;8.80;;
20830;SDS011;10576;53.556;9.868;2022-12-18T06:57:35;17.23;;;9.15;;
20830;SDS011;10576;53.556;9.868;2022-12-18T07:00:02;16.77;;;9.20;;
20830;SDS011;10576;53.556;9.868;2022-12-18T07:02:29;17.93;;;9.40;;
20830;SDS011;10576;53.556;9.868;2022-12-18T07:04:54;16.60;;;8.93;;
20830;SDS011;10576;53.556;9.868;2022-12-18T07:07:20;15.50;;;9.23;;
20830;SDS011;10576;53.556;9.868;2022-12-18T07:09:46;14.80;;;8.27;;
20830;SDS011;10576;53.556;9.868;2022-12-18T07:12:11;12.95;;;8.20;;
20830;SDS011;10576;53.556;9.868;2022-12-18T07:14:37;15.10;;;8.60;;
20830;SDS011;10576;53.556;9.868;2022-12-18T07:17:03;14.43;;;8.50;;
20830;SDS011;10576;53.556;9.868;2022-12-18T07:19:29;16.55;;;9.05;;
20830;SDS011;10576;53.556;9.868;2022-12-18T07:21:54;12.43;;;7.80;;
20830;SDS011;10576;53.556;9.868;2022-12-18T07:24:20;13.57;;;8.95;;
20830;SDS011;10576;53.556;9.868;2022-12-18T07:26:46;14.67;;;8.63;;
20830;SDS011;10576;53.556;9.868;2022-12-18T07:29:12;12.32;;;8.25;;
20830;SDS011;10576;53.556;9.868;2022-12-18T07:31:38;15.18;;;8.23;;
20830;SDS011;10576;53.556;9.868;2022-12-18T07:34:03;15.23;;;8.30;;
20830;SDS011;10576;53.556;9.868;2022-12-18T07:36:29;13.23;;;8.57;;
20830;SDS011;10576;53.556;9.868;2022-12-18T07:38:55;15.70;;;8.93;;
20830;SDS011;10576;53.556;9.868;2022-12-18T07:41:21;13.27;;;8.75;;
20830;SDS011;10576;53.556;9.868;2022-12-18T07:43:47;12.57;;;8.35;;
20830;SDS011;10576;53.556;9.868;2022-12-18T07:46:13;13.23;;;7.82;;
20830;SDS011;10576;53.556;9.868;2022-12-18T07:48:40;13.83;;;8.13;;
20830;SDS011;10576;53.556;9.868;2022-12-18T07:51:07;13.57;;;8.15;;
20830;SDS011;10576;53.556;9.868;2022-12-18T07:53:33;12.93;;;8.10;;
20830;SDS011;10576;53.556;9.868;2022-12-18T07:56:01;10.50;;;7.35;;
20830;SDS011;10576;53.556;9.868;2022-12-18T07:58:29;11.27;;;7.72;;
20830;SDS011;10576;53.556;9.868;2022-12-18T08:01:01;12.68;;;7.75;;
20830;SDS011;10576;53.556;9.868;2022-12-18T08:03:32;10.65;;;7.25;;
20830;SDS011;10576;53.556;9.868;2022-12-18T08:05:58;13.35;;;7.05;;
20830;SDS011;10576;53.556;9.868;2022-12-18T08:08:28;11.32;;;7.22;;
20830;SDS011;10576;53.556;9.868;2022-12-18T08:10:54;11.25;;;6.97;;
20830;SDS011;10576;53.556;9.868;2022-12-18T08:13:20;9.52;;;6.93;;
20830;SDS011;10576;53.556;9.868;2022-12-18T08:15:54;11.18;;;7.82;;
20830;SDS011;10576;53.556;9.868;2022-12-18T08:18:24;13.83;;;7.50;;
20830;SDS011;10576;53.556;9.868;2022-12-18T08:20:50;11.85;;;7.90;;
20830;SDS011;10576;53.556;9.868;2022-12-18T08:23:16;12.50;;;7.88;;
20830;SDS011;10576;53.556;9.868;2022-12-18T08:25:41;11.68;;;8.00;;
20830;SDS011;10576;53.556;9.868;2022-12-18T08:28:07;11.80;;;7.77;;
20830;SDS011;10576;53.556;9.868;2022-12-18T08:30:33;15.00;;;8.57;;
20830;SDS011;10576;53.556;9.868;2022-12-18T08:33:00;15.98;;;9.30;;
20830;SDS011;10576;53.556;9.868;2022-12-18T08:35:26;14.32;;;8.95;;
20830;SDS011;10576;53.556;9.868;2022-12-18T08:37:53;13.57;;;9.00;;
20830;SDS011;10576;53.556;9.868;2022-12-18T08:40:18;14.73;;;8.90;;
20830;SDS011;10576;53.556;9.868;2022-12-18T08:42:44;14.90;;;8.90;;
20830;SDS011;10576;53.556;9.868;2022-12-18T08:45:48;17.50;;;9.32;;
20830;SDS011;10576;53.556;9.868;2022-12-18T08:48:14;14.13;;;9.13;;
20830;SDS011;10576;53.556;9.868;2022-12-18T08:50:40;13.15;;;9.32;;
20830;SDS011;10576;53.556;9.868;2022-12-18T08:53:05;14.52;;;8.93;;
20830;SDS011;10576;53.556;9.868;2022-12-18T08:55:31;13.32;;;8.50;;
20830;SDS011;10576;53.556;9.868;2022-12-18T08:57:57;13.30;;;9.32;;
20830;SDS011;10576;53.556;9.868;2022-12-18T09:00:22;15.10;;;9.70;;
20830;SDS011;10576;53.556;9.868;2022-12-18T09:02:49;15.98;;;9.40;;
20830;SDS011;10576;53.556;9.868;2022-12-18T09:05:15;13.90;;;9.07;;
20830;SDS011;10576;53.556;9.868;2022-12-18T09:07:41;13.93;;;9.50;;
20830;SDS011;10576;53.556;9.868;2022-12-18T09:10:07;12.90;;;8.82;;
20830;SDS011;10576;53.556;9.868;2022-12-18T09:15:52;11.82;;;7.95;;
20830;SDS011;10576;53.556;9.868;2022-12-18T09:18:20;11.18;;;8.32;;
20830;SDS011;10576;53.556;9.868;2022-12-18T09:20:47;15.48;;;8.80;;
20830;SDS011;10576;53.556;9.868;2022-12-18T09:23:13;13.20;;;8.27;;
20830;SDS011;10576;53.556;9.868;2022-12-18T09:25:39;11.68;;;8.43;;
20830;SDS011;10576;53.556;9.868;2022-12-18T09:28:06;13.48;;;8.65;;
20830;SDS011;10576;53.556;9.868;2022-12-18T09:30:39;13.03;;;8.70;;
20830;SDS011;10576;53.556;9.868;2022-12-18T09:33:06;14.05;;;8.20;;
20830;SDS011;10576;53.556;9.868;2022-12-18T09:35:32;10.50;;;7.57;;
20830;SDS011;10576;53.556;9.868;2022-12-18T09:37:57;11.07;;;7.90;;
20830;SDS011;10576;53.556;9.868;2022-12-18T09:40:24;12.33;;;7.87;;
20830;SDS011;10576;53.556;9.868;2022-12-18T09:42:57;11.48;;;8.23;;
20830;SDS011;10576;53.556;9.868;2022-12-18T09:45:25;12.35;;;8.30;;
20830;SDS011;10576;53.556;9.868;2022-12-18T09:47:52;12.35;;;7.72;;
20830;SDS011;10576;53.556;9.868;2022-12-18T09:50:25;13.15;;;8.40;;
20830;SDS011;10576;53.556;9.868;2022-12-18T09:52:56;16.33;;;8.13;;
20830;SDS011;10576;53.556;9.868;2022-12-18T09:58:12;13.48;;;8.70;;
20830;SDS011;10576;53.556;9.868;2022-12-18T10:00:42;15.85;;;9.55;;
20830;SDS011;10576;53.556;9.868;2022-12-18T10:03:09;12.52;;;8.75;;
20830;SDS011;10576;53.556;9.868;2022-12-18T10:08:13;14.13;;;8.93;;
20830;SDS011;10576;53.556;9.868;2022-12-18T10:10:52;13.65;;;9.25;;
20830;SDS011;10576;53.556;9.868;2022-12-18T10:13:31;12.05;;;8.20;;
20830;SDS011;10576;53.556;9.868;2022-12-18T10:24:28;12.70;;;8.30;;
20830;SDS011;10576;53.556;9.868;2022-12-18T10:27:17;12.07;;;8.05;;
20830;SDS011;10576;53.556;9.868;2022-12-18T10:29:46;12.63;;;8.68;;
20830;SDS011;10576;53.556;9.868;2022-12-18T10:32:16;12.98;;;8.70;;
20830;SDS011;10576;53.556;9.868;2022-12-18T10:34:45;14.50;;;8.02;;
20830;SDS011;10576;53.556;9.868;2022-12-18T10:37:15;12.00;;;8.40;;
20830;SDS011;10576;53.556;9.868;2022-12-18T10:39:44;14.18;;;9.77;;
20830;SDS011;10576;53.556;9.868;2022-12-18T10:42:18;13.18;;;8.52;;
20830;SDS011;10576;53.556;9.868;2022-12-18T10:44:44;12.17;;;8.50;;
20830;SDS011;10576;53.556;9.868;2022-12-18T10:47:17;12.02;;;8.20;;
20830;SDS011;10576;53.556;9.868;2022-12-18T10:49:48;16.35;;;9.32;;
20830;SDS011;10576;53.556;9.868;2022-12-18T10:52:17;13.10;;;9.00;;
20830;SDS011;10576;53.556;9.868;2022-12-18T10:54:49;15.98;;;9.02;;
20830;SDS011;10576;53.556;9.868;2022-12-18T10:57:34;12.75;;;9.02;;
20830;SDS011;10576;53.556;9.868;2022-12-18T11:02:56;13.20;;;8.88;;
20830;SDS011;10576;53.556;9.868;2022-12-18T11:05:23;13.02;;;8.45;;
20830;SDS011;10576;53.556;9.868;2022-12-18T11:07:50;15.00;;;8.63;;
20830;SDS011;10576;53.556;9.868;2022-12-18T11:10:19;14.20;;;8.70;;
20830;SDS011;10576;53.556;9.868;2022-12-18T11:12:47;14.43;;;8.70;;
20830;SDS011;10576;53.556;9.868;2022-12-18T11:15:15;14.97;;;9.20;;
20830;SDS011;10576;53.556;9.868;2022-12-18T11:17:44;13.80;;;9.27;;
20830;SDS011;10576;53.556;9.868;2022-12-18T11:20:22;14.13;;;9.43;;
20830;SDS011;10576;53.556;9.868;2022-12-18T11:23:01;14.07;;;8.40;;
20830;SDS011;10576;53.556;9.868;2022-12-18T11:25:30;12.40;;;7.77;;
20830;SDS011;10576;53.556;9.868;2022-12-18T11:28:05;14.07;;;8.85;;
20830;SDS011;10576;53.556;9.868;2022-12-18T11:36:43;13.05;;;8.88;;
20830;SDS011;10576;53.556;9.868;2022-12-18T11:39:18;12.23;;;8.77;;
20830;SDS011;10576;53.556;9.868;2022-12-18T11:47:42;13.17;;;9.27;;
20830;SDS011;10576;53.556;9.868;2022-12-18T11:50:16;13.93;;;9.52;;
20830;SDS011;10576;53.556;9.868;2022-12-18T11:52:45;14.95;;;9.65;;
20830;SDS011;10576;53.556;9.868;2022-12-18T11:55:12;14.47;;;8.90;;
20830;SDS011;10576;53.556;9.868;2022-12-18T12:00:20;11.82;;;9.35;;
20830;SDS011;10576;53.556;9.868;2022-12-18T12:10:51;13.32;;;9.38;;
20830;SDS011;10576;53.556;9.868;2022-12-18T12:16:37;15.88;;;9.93;;
20830;SDS011;10576;53.556;9.868;2022-12-18T12:19:15;13.52;;;9.98;;
20830;SDS011;10576;53.556;9.868;2022-12-18T12:27:11;15.57;;;10.35;;
20830;SDS011;10576;53.556;9.868;2022-12-18T12:35:12;15.97;;;10.87;;
20830;SDS011;10576;53.556;9.868;2022-12-18T12:40:49;14.93;;;10.73;;
20830;SDS011;10576;53.556;9.868;2022-12-18T12:43:22;17.75;;;11.75;;
20830;SDS011;10576;53.556;9.868;2022-12-18T12:46:00;18.13;;;11.77;;
20830;SDS011;10576;53.556;9.868;2022-12-18T12:48:34;19.23;;;11.70;;
20830;SDS011;10576;53.556;9.868;2022-12-18T12:51:14;16.23;;;11.10;;
20830;SDS011;10576;53.556;9.868;2022-12-18T12:53:41;17.17;;;11.75;;
20830;SDS011;10576;53.556;9.868;2022-12-18T12:56:07;17.90;;;10.57;;
20830;SDS011;10576;53.556;9.868;2022-12-18T13:01:39;18.48;;;11.15;;
20830;SDS011;10576;53.556;9.868;2022-12-18T13:04:35;19.45;;;11.60;;
20830;SDS011;10576;53.556;9.868;2022-12-18T13:13:17;17.05;;;11.43;;
20830;SDS011;10576;53.556;9.868;2022-12-18T13:30:59;16.27;;;11.32;;
20830;SDS011;10576;53.556;9.868;2022-12-18T13:40:56;18.88;;;12.00;;
20830;SDS011;10576;53.556;9.868;2022-12-18T13:49:05;20.27;;;12.93;;
20830;SDS011;10576;53.556;9.868;2022-12-18T13:51:42;20.00;;;12.38;;
20830;SDS011;10576;53.556;9.868;2022-12-18T13:57:05;23.13;;;13.85;;
20830;SDS011;10576;53.556;9.868;2022-12-18T14:02:47;23.45;;;13.90;;
20830;SDS011;10576;53.556;9.868;2022-12-18T14:05:27;22.38;;;13.65;;
20830;SDS011;10576;53.556;9.868;2022-12-18T14:07:54;24.00;;;14.25;;
20830;SDS011;10576;53.556;9.868;2022-12-18T14:10:23;24.10;;;14.10;;
20830;SDS011;10576;53.556;9.868;2022-12-18T14:12:50;21.73;;;12.97;;
20830;SDS011;10576;53.556;9.868;2022-12-18T14:17:51;24.20;;;13.70;;
20830;SDS011;10576;53.556;9.868;2022-12-18T14:20:24;24.50;;;14.25;;
20830;SDS011;10576;53.556;9.868;2022-12-18T14:22:51;26.73;;;15.80;;
20830;SDS011;10576;53.556;9.868;2022-12-18T14:25:24;24.60;;;14.85;;
20830;SDS011;10576;53.556;9.868;2022-12-18T14:28:13;26.25;;;15.43;;
20830;SDS011;10576;53.556;9.868;2022-12-18T14:30:43;23.85;;;15.10;;
20830;SDS011;10576;53.556;9.868;2022-12-18T14:35:40;25.27;;;15.48;;
20830;SDS011;10576;53.556;9.868;2022-12-18T14:38:26;26.00;;;14.93;;
20830;SDS011;10576;53.556;9.868;2022-12-18T14:43:28;25.58;;;15.35;;
20830;SDS011;10576;53.556;9.868;2022-12-18T14:45:56;28.98;;;15.57;;
20830;SDS011;10576;53.556;9.868;2022-12-18T14:51:02;26.10;;;16.20;;
20830;SDS011;10576;53.556;9.868;2022-12-18T14:53:34;29.85;;;16.70;;
20830;SDS011;10576;53.556;9.868;2022-12-18T14:58:46;28.48;;;16.23;;
20830;SDS011;10576;53.556;9.868;2022-12-18T15:01:20;28.42;;;16.60;;
20830;SDS011;10576;53.556;9.868;2022-12-18T15:03:49;29.73;;;16.50;;
20830;SDS011;10576;53.556;9.868;2022-12-18T15:06:17;28.00;;;16.48;;
20830;SDS011;10576;53.556;9.868;2022-12-18T15:08:59;27.50;;;15.95;;
20830;SDS011;10576;53.556;9.868;2022-12-18T15:11:42;28.95;;;16.30;;
20830;SDS011;10576;53.556;9.868;2022-12-18T15:14:30;30.20;;;17.95;;
20830;SDS011;10576;53.556;9.868;2022-12-18T15:16:59;28.07;;;16.47;;
20830;SDS011;10576;53.556;9.868;2022-12-18T15:19:48;30.73;;;17.27;;
20830;SDS011;10576;53.556;9.868;2022-12-18T15:24:53;31.20;;;16.88;;
20830;SDS011;10576;53.556;9.868;2022-12-18T15:27:37;30.58;;;16.98;;
20830;SDS011;10576;53.556;9.868;2022-12-18T15:32:32;31.52;;;18.25;;
20830;SDS011;10576;53.556;9.868;2022-12-18T15:35:03;31.15;;;18.05;;
20830;SDS011;10576;53.556;9.868;2022-12-18T15:37:39;31.88;;;17.85;;
20830;SDS011;10576;53.556;9.868;2022-12-18T15:40:05;32.45;;;18.00;;
20830;SDS011;10576;53.556;9.868;2022-12-18T15:42:31;35.85;;;18.48;;
20830;SDS011;10576;53.556;9.868;2022-12-18T15:45:16;31.17;;;17.63;;
20830;SDS011;10576;53.556;9.868;2022-12-18T15:47:41;27.83;;;17.43;;
20830;SDS011;10576;53.556;9.868;2022-12-18T15:50:07;32.85;;;17.35;;
20830;SDS011;10576;53.556;9.868;2022-12-18T15:52:36;31.70;;;17.83;;
20830;SDS011;10576;53.556;9.868;2022-12-18T15:55:10;32.75;;;18.33;;
20830;SDS011;10576;53.556;9.868;2022-12-18T15:57:58;34.80;;;18.17;;
20830;SDS011;10576;53.556;9.868;2022-12-18T16:00:24;31.67;;;17.40;;
20830;SDS011;10576;53.556;9.868;2022-12-18T16:02:50;33.55;;;17.58;;
20830;SDS011;10576;53.556;9.868;2022-12-18T16:05:16;32.97;;;17.33;;
20830;SDS011;10576;53.556;9.868;2022-12-18T16:07:43;35.13;;;19.02;;
20830;SDS011;10576;53.556;9.868;2022-12-18T16:10:09;32.17;;;17.23;;
20830;SDS011;10576;53.556;9.868;2022-12-18T16:12:35;32.27;;;16.83;;
20830;SDS011;10576;53.556;9.868;2022-12-18T16:15:02;32.17;;;18.63;;
20830;SDS011;10576;53.556;9.868;2022-12-18T16:17:29;30.43;;;17.37;;
20830;SDS011;10576;53.556;9.868;2022-12-18T16:19:55;31.52;;;17.05;;
20830;SDS011;10576;53.556;9.868;2022-12-18T16:22:21;30.30;;;16.50;;
20830;SDS011;10576;53.556;9.868;2022-12-18T16:24:49;29.90;;;16.52;;
20830;SDS011;10576;53.556;9.868;2022-12-18T16:27:16;30.60;;;17.23;;
20830;SDS011;10576;53.556;9.868;2022-12-18T16:29:42;34.67;;;17.20;;
20830;SDS011;10576;53.556;9.868;2022-12-18T16:32:13;31.15;;;17.10;;
20830;SDS011;10576;53.556;9.868;2022-12-18T16:34:44;32.72;;;16.65;;
20830;SDS011;10576;53.556;9.868;2022-12-18T16:37:10;31.90;;;16.42;;
20830;SDS011;10576;53.556;9.868;2022-12-18T16:39:37;32.50;;;17.23;;
20830;SDS011;10576;53.556;9.868;2022-12-18T16:42:05;34.00;;;17.05;;
20830;SDS011;10576;53.556;9.868;2022-12-18T16:44:37;30.30;;;15.77;;
20830;SDS011;10576;53.556;9.868;2022-12-18T16:47:03;28.05;;;16.25;;
20830;SDS011;10576;53.556;9.868;2022-12-18T16:49:29;29.98;;;16.20;;
20830;SDS011;10576;53.556;9.868;2022-12-18T16:51:55;29.33;;;15.57;;
20830;SDS011;10576;53.556;9.868;2022-12-18T16:54:21;31.30;;;17.03;;
20830;SDS011;10576;53.556;9.868;2022-12-18T16:56:47;32.75;;;17.60;;
20830;SDS011;10576;53.556;9.868;2022-12-18T16:59:16;32.47;;;16.48;;
20830;SDS011;10576;53.556;9.868;2022-12-18T17:01:43;33.78;;;16.88;;
20830;SDS011;10576;53.556;9.868;2022-12-18T17:04:08;29.83;;;16.25;;
20830;SDS011;10576;53.556;9.868;2022-12-18T17:06:35;26.13;;;14.10;;
20830;SDS011;10576;53.556;9.868;2022-12-18T17:09:05;27.83;;;16.00;;
20830;SDS011;10576;53.556;9.868;2022-12-18T17:11:33;27.48;;;15.30;;
20830;SDS011;10576;53.556;9.868;2022-12-18T17:14:05;27.70;;;15.50;;